VDPP/PNH METAR and TAF weather

Enter ICAO airport designator
Station Type Date Time Source
VDPP METAR 2022/01/29 01:30 UTC NOAA

VDPP 290130Z VRB03KT 9999 FEW017 28/24 Q1011


Station Type Date Time Source
VDPP Decoded METAR 2022/01/29 01:30 UTC NOAA

Phnom-Penh / Pochentong, Cambodia (VDPP) 11-33N 104-51E 10M
Jan 28, 2022 - 08:30 PM EST / 2022.01.29 0130 UTC
Wind: Variable at 3 MPH (3 KT):0
Visibility: greater than 7 mile(s):0
Sky conditions: mostly clear
Temperature: 82 F (28 C)
Dew Point: 75 F (24 C)
Relative Humidity: 78%
Pressure (altimeter): 29.85 in. Hg (1011 hPa)
ob: VDPP 290130Z VRB03KT 9999 FEW017 28/24 Q1011
cycle: 1

Station Type Date Time Source
VDPP TAF 2022/01/28 18:00 UTC NOAA

TAF VDPP 281700Z 2818/2912 18007KT 9999 SCT017

Example: see airport list